createdAt,value
2017-12-16T00:01:59.200Z,2.20
2017-12-16T00:05:09.966Z,2.10
2017-12-16T00:08:19.828Z,2.00
2017-12-16T00:11:29.435Z,2.10
2017-12-16T00:14:40.649Z,2.10
2017-12-16T00:17:51.448Z,2.10
2017-12-16T00:21:01.489Z,2.10
2017-12-16T00:24:11.429Z,2.10
2017-12-16T00:27:22.030Z,2.10
2017-12-16T00:30:31.845Z,2.10
2017-12-16T00:33:42.417Z,2.10
2017-12-16T00:36:52.306Z,2.10
2017-12-16T00:40:02.276Z,2.10
2017-12-16T00:43:13.004Z,2.10
2017-12-16T00:46:23.347Z,2.10
2017-12-16T00:49:34.562Z,2.10
2017-12-16T00:52:44.343Z,2.00
2017-12-16T00:55:55.551Z,2.00
2017-12-16T00:59:07.351Z,2.00
2017-12-16T01:02:17.918Z,2.00
2017-12-16T01:05:28.556Z,2.10
2017-12-16T01:08:39.807Z,2.00
2017-12-16T01:11:50.199Z,2.00
2017-12-16T01:15:01.621Z,2.00
2017-12-16T01:18:11.366Z,2.10
2017-12-16T01:21:21.411Z,1.90
2017-12-16T01:24:32.110Z,1.90
2017-12-16T01:27:42.649Z,1.90
2017-12-16T01:30:53.482Z,2.00
2017-12-16T01:34:16.103Z,2.00
2017-12-16T01:37:37.844Z,1.90
2017-12-16T01:40:47.982Z,1.90
2017-12-16T01:43:58.816Z,1.80
2017-12-16T01:47:08.843Z,1.90
2017-12-16T01:50:19.014Z,1.80
2017-12-16T01:53:29.127Z,1.80
2017-12-16T01:56:39.267Z,1.90
2017-12-16T01:59:49.313Z,1.90
2017-12-16T02:02:59.018Z,1.90
2017-12-16T02:06:08.614Z,1.90
2017-12-16T02:09:19.151Z,1.80
2017-12-16T02:12:29.303Z,1.80
2017-12-16T02:15:39.256Z,1.80
2017-12-16T02:18:50.269Z,1.80
2017-12-16T02:22:00.017Z,1.80
2017-12-16T02:25:10.306Z,1.80
2017-12-16T02:28:20.636Z,1.80
2017-12-16T02:31:31.309Z,1.90
2017-12-16T02:34:40.485Z,1.90
2017-12-16T02:37:50.749Z,1.90
2017-12-16T02:41:00.554Z,1.90
2017-12-16T02:44:11.218Z,1.80
2017-12-16T02:47:21.089Z,1.80
2017-12-16T02:50:30.753Z,1.90
2017-12-16T02:53:40.639Z,1.90
2017-12-16T02:56:50.192Z,1.80
2017-12-16T02:59:59.922Z,1.90
2017-12-16T03:03:09.671Z,1.90
2017-12-16T03:06:19.518Z,1.90
2017-12-16T03:09:29.738Z,1.90
2017-12-16T03:12:39.929Z,1.90
2017-12-16T03:15:50.517Z,1.90
2017-12-16T03:19:00.040Z,1.90
2017-12-16T03:22:09.911Z,1.90
2017-12-16T03:25:20.121Z,1.90
2017-12-16T03:28:30.314Z,1.80
2017-12-16T03:31:40.532Z,1.80
2017-12-16T03:34:50.700Z,1.80
2017-12-16T03:38:00.121Z,1.80
2017-12-16T03:41:11.128Z,1.80
2017-12-16T03:44:20.864Z,1.80
2017-12-16T03:47:30.367Z,1.70
2017-12-16T03:50:41.390Z,1.80
2017-12-16T03:53:51.832Z,1.80
2017-12-16T03:57:02.081Z,1.90
2017-12-16T04:00:12.056Z,1.80
2017-12-16T04:03:21.923Z,1.70
2017-12-16T04:06:32.570Z,1.80
2017-12-16T04:09:43.108Z,1.70
2017-12-16T04:12:53.279Z,1.70
2017-12-16T04:16:03.497Z,1.80
2017-12-16T04:19:13.854Z,1.80
2017-12-16T04:22:24.047Z,1.90
2017-12-16T04:25:34.324Z,1.90
2017-12-16T04:28:44.201Z,1.70
2017-12-16T04:31:54.101Z,1.70
2017-12-16T04:35:04.124Z,1.80
2017-12-16T04:38:13.980Z,1.70
2017-12-16T04:41:23.914Z,1.70
2017-12-16T04:44:34.859Z,1.70
2017-12-16T04:47:45.066Z,1.60
2017-12-16T04:50:55.145Z,1.60
2017-12-16T04:54:05.288Z,1.70
2017-12-16T04:57:15.492Z,1.60
2017-12-16T05:00:25.707Z,1.60
2017-12-16T05:03:36.349Z,1.70
2017-12-16T05:06:46.229Z,1.70
2017-12-16T05:09:56.146Z,1.70
2017-12-16T05:16:17.413Z,1.70
2017-12-16T05:19:28.437Z,1.80
2017-12-16T05:22:38.230Z,1.70
2017-12-16T05:25:48.099Z,1.70
2017-12-16T05:28:57.935Z,1.70
2017-12-16T05:32:07.459Z,1.70
2017-12-16T05:35:17.318Z,1.70
2017-12-16T05:38:27.103Z,1.60
2017-12-16T05:41:37.843Z,1.60
2017-12-16T05:44:47.778Z,1.60
2017-12-16T05:47:58.440Z,1.50
2017-12-16T05:51:08.341Z,1.50
2017-12-16T05:54:18.190Z,1.50
2017-12-16T05:57:28.226Z,1.50
2017-12-16T06:00:37.682Z,1.60
2017-12-16T06:03:47.736Z,1.60
2017-12-16T06:06:58.023Z,1.60
2017-12-16T06:10:08.019Z,1.60
2017-12-16T06:13:18.358Z,1.60
2017-12-16T06:16:28.383Z,1.70
2017-12-16T06:19:38.475Z,1.70
2017-12-16T06:22:49.197Z,1.60
2017-12-16T06:25:58.831Z,1.60
2017-12-16T06:29:09.185Z,1.60
2017-12-16T06:32:18.705Z,1.60
2017-12-16T06:35:28.443Z,1.60
2017-12-16T06:38:38.045Z,1.60
2017-12-16T06:41:48.355Z,1.50
2017-12-16T06:44:59.087Z,1.60
2017-12-16T06:48:08.944Z,1.60
2017-12-16T06:51:19.806Z,1.50
2017-12-16T06:54:29.435Z,1.50
2017-12-16T06:57:40.756Z,1.60
2017-12-16T07:00:50.693Z,1.60
2017-12-16T07:04:00.957Z,1.50
2017-12-16T07:07:10.995Z,1.50
2017-12-16T07:10:20.383Z,1.40
2017-12-16T07:13:31.178Z,1.50
2017-12-16T07:16:41.075Z,1.50
2017-12-16T07:19:50.619Z,1.50
2017-12-16T07:23:00.511Z,1.70
2017-12-16T07:26:10.649Z,1.70
2017-12-16T07:29:20.817Z,1.70
2017-12-16T07:32:30.799Z,1.70
2017-12-16T07:35:40.802Z,1.70
2017-12-16T07:38:51.401Z,1.70
2017-12-16T07:42:01.973Z,1.80
2017-12-16T07:45:13.364Z,1.80
2017-12-16T07:48:23.638Z,1.80
2017-12-16T07:51:33.308Z,1.90
2017-12-16T07:54:44.746Z,1.90
2017-12-16T07:57:54.916Z,1.90
2017-12-16T08:01:06.683Z,1.90
2017-12-16T08:04:17.251Z,1.90
2017-12-16T08:07:27.982Z,1.90
2017-12-16T08:10:39.924Z,1.90
2017-12-16T08:13:50.549Z,1.90
2017-12-16T08:17:01.985Z,1.90
2017-12-16T08:20:12.615Z,1.90
2017-12-16T08:23:23.910Z,1.90
2017-12-16T08:26:34.761Z,1.90
2017-12-16T08:29:45.563Z,1.90
2017-12-16T08:32:56.469Z,1.90
2017-12-16T08:36:06.310Z,1.80
2017-12-16T08:39:16.204Z,1.90
2017-12-16T08:42:27.784Z,1.90
2017-12-16T08:45:39.332Z,1.90
2017-12-16T08:48:50.067Z,2.00
2017-12-16T08:52:00.038Z,2.00
2017-12-16T08:55:10.008Z,1.90
2017-12-16T08:58:20.151Z,2.00
2017-12-16T09:01:30.888Z,2.00
2017-12-16T09:04:41.494Z,2.00
2017-12-16T09:07:51.649Z,2.00
2017-12-16T09:11:03.360Z,2.10
2017-12-16T09:14:13.996Z,2.20
2017-12-16T09:17:24.877Z,2.20
2017-12-16T09:20:34.742Z,2.20
2017-12-16T09:23:44.940Z,2.20
2017-12-16T09:26:55.433Z,2.20
2017-12-16T09:30:06.133Z,2.20
2017-12-16T09:33:16.821Z,2.20
2017-12-16T09:36:26.691Z,2.30
2017-12-16T09:39:37.148Z,2.20
2017-12-16T09:42:47.602Z,2.20
2017-12-16T09:45:58.690Z,2.20
2017-12-16T09:49:08.661Z,2.20
2017-12-16T09:52:19.010Z,2.10
2017-12-16T09:55:29.446Z,2.10
2017-12-16T09:58:39.431Z,2.10
2017-12-16T10:01:49.865Z,2.20
2017-12-16T10:05:00.748Z,2.20
2017-12-16T10:08:11.308Z,2.20
2017-12-16T10:11:21.526Z,2.20
2017-12-16T10:14:31.990Z,2.30
2017-12-16T10:17:42.148Z,2.40
2017-12-16T10:20:52.816Z,2.40
2017-12-16T10:24:02.853Z,2.40
2017-12-16T10:27:12.785Z,2.50
2017-12-16T10:30:23.287Z,2.50
2017-12-16T10:33:33.860Z,2.50
2017-12-16T10:36:45.015Z,2.40
2017-12-16T10:39:55.576Z,2.30
2017-12-16T10:43:06.166Z,2.30
2017-12-16T10:46:16.764Z,2.30
2017-12-16T10:49:26.414Z,2.20
2017-12-16T10:52:36.892Z,2.20
2017-12-16T10:55:47.146Z,2.20
2017-12-16T10:58:57.457Z,2.20
2017-12-16T11:02:07.446Z,2.20
2017-12-16T11:05:17.702Z,2.20
2017-12-16T11:08:27.938Z,2.20
2017-12-16T11:11:37.869Z,2.30
2017-12-16T11:14:48.048Z,2.30
2017-12-16T11:17:57.953Z,2.30
2017-12-16T11:21:08.035Z,2.30
2017-12-16T11:24:18.386Z,2.20
2017-12-16T11:27:29.030Z,2.20
2017-12-16T11:30:39.592Z,2.30
2017-12-16T11:33:50.317Z,2.20
2017-12-16T11:37:00.446Z,2.20
2017-12-16T11:40:10.448Z,2.30
2017-12-16T11:43:20.523Z,2.20
2017-12-16T11:46:31.311Z,2.20
2017-12-16T11:49:41.667Z,2.20
2017-12-16T11:52:52.027Z,2.30
2017-12-16T11:56:02.883Z,2.30
2017-12-16T11:59:13.238Z,2.20
2017-12-16T12:02:23.336Z,2.30
2017-12-16T12:05:33.403Z,2.30
2017-12-16T12:08:44.044Z,2.30
2017-12-16T12:11:54.266Z,2.30
2017-12-16T12:15:04.268Z,2.30
2017-12-16T12:18:14.403Z,2.30
2017-12-16T12:21:25.539Z,2.30
2017-12-16T12:24:35.485Z,2.30
2017-12-16T12:27:45.812Z,2.30
2017-12-16T12:30:56.498Z,2.30
2017-12-16T12:34:06.651Z,2.40
2017-12-16T12:37:16.535Z,2.30
2017-12-16T12:40:27.062Z,2.30
2017-12-16T12:43:37.096Z,2.30
2017-12-16T12:46:46.936Z,2.30
2017-12-16T12:49:56.691Z,2.30
2017-12-16T12:53:07.192Z,2.30
2017-12-16T12:56:17.349Z,2.30
2017-12-16T12:59:27.702Z,2.30
2017-12-16T13:02:37.842Z,2.30
2017-12-16T13:05:58.683Z,2.20
2017-12-16T13:09:08.527Z,2.20
2017-12-16T13:12:18.534Z,2.30
2017-12-16T13:15:28.403Z,2.20
2017-12-16T13:18:39.211Z,2.30
2017-12-16T13:21:49.910Z,2.30
2017-12-16T13:25:00.104Z,2.20
2017-12-16T13:28:10.284Z,2.30
2017-12-16T13:31:21.310Z,2.30
2017-12-16T13:34:31.441Z,2.30
2017-12-16T13:37:41.584Z,2.20
2017-12-16T13:40:51.515Z,2.20
2017-12-16T13:44:02.416Z,2.20
2017-12-16T13:47:12.140Z,2.20
2017-12-16T13:50:22.767Z,2.20
2017-12-16T13:53:32.693Z,2.30
2017-12-16T13:56:44.102Z,2.30
2017-12-16T13:59:54.388Z,2.20
2017-12-16T14:03:04.540Z,2.20
2017-12-16T14:06:14.544Z,2.20
2017-12-16T14:09:24.573Z,2.20
2017-12-16T14:12:35.208Z,2.20
2017-12-16T14:15:45.248Z,2.20
2017-12-16T14:18:55.160Z,2.30
2017-12-16T14:22:05.012Z,2.20
2017-12-16T14:25:15.583Z,2.20
2017-12-16T14:28:26.480Z,2.20
2017-12-16T14:31:36.348Z,2.10
2017-12-16T14:34:46.828Z,2.20
2017-12-16T14:37:57.292Z,2.30
2017-12-16T14:41:07.293Z,2.30
2017-12-16T14:44:18.205Z,2.10
2017-12-16T14:47:28.378Z,2.10
2017-12-16T14:50:39.114Z,2.10
2017-12-16T14:53:49.375Z,2.10
2017-12-16T14:56:59.168Z,2.20
2017-12-16T15:00:09.813Z,2.10
2017-12-16T15:03:20.952Z,2.10
2017-12-16T15:06:31.182Z,2.10
2017-12-16T15:09:41.449Z,2.20
2017-12-16T15:12:51.716Z,2.10
2017-12-16T15:16:01.713Z,2.10
2017-12-16T15:19:11.875Z,2.10
2017-12-16T15:22:21.666Z,2.10
2017-12-16T15:25:31.619Z,2.10
2017-12-16T15:28:42.261Z,2.10
2017-12-16T15:31:52.108Z,2.10
2017-12-16T15:35:02.255Z,2.10
2017-12-16T15:38:12.118Z,2.10
2017-12-16T15:41:22.381Z,2.10
2017-12-16T15:44:32.484Z,2.10
2017-12-16T15:47:43.028Z,2.10
2017-12-16T15:50:53.648Z,2.10
2017-12-16T15:54:03.868Z,2.00
2017-12-16T15:57:13.648Z,2.10
2017-12-16T16:00:24.203Z,2.00
2017-12-16T16:03:34.692Z,2.00
2017-12-16T16:06:45.524Z,2.00
2017-12-16T16:09:55.842Z,2.10
2017-12-16T16:13:06.054Z,2.00
2017-12-16T16:16:16.277Z,2.00
2017-12-16T16:19:27.081Z,2.00
2017-12-16T16:22:37.548Z,1.90
2017-12-16T16:25:48.027Z,2.00
2017-12-16T16:28:58.411Z,1.90
2017-12-16T16:32:09.447Z,2.00
2017-12-16T16:35:20.525Z,2.00
2017-12-16T16:38:31.102Z,2.00
2017-12-16T16:41:41.595Z,2.00
2017-12-16T16:44:52.840Z,2.00
2017-12-16T16:48:03.712Z,2.00
2017-12-16T16:51:13.935Z,2.00
2017-12-16T16:54:24.022Z,2.00
2017-12-16T16:57:33.949Z,1.90
2017-12-16T17:00:44.035Z,2.00
2017-12-16T17:03:54.195Z,1.90
2017-12-16T17:07:04.049Z,1.90
2017-12-16T17:10:14.321Z,1.90
2017-12-16T17:13:24.525Z,1.90
2017-12-16T17:16:34.794Z,1.90
2017-12-16T17:19:45.164Z,1.90
2017-12-16T17:22:55.858Z,1.90
2017-12-16T17:26:06.145Z,1.90
2017-12-16T17:29:16.125Z,1.90
2017-12-16T17:32:26.634Z,1.90
2017-12-16T17:35:37.012Z,1.90
2017-12-16T17:38:47.292Z,1.90
2017-12-16T17:41:57.332Z,1.80
2017-12-16T17:45:08.035Z,1.80
2017-12-16T17:48:18.251Z,1.80
2017-12-16T17:51:28.698Z,1.80
2017-12-16T17:54:38.856Z,1.90
2017-12-16T17:57:50.620Z,1.80
2017-12-16T18:01:00.750Z,1.80
2017-12-16T18:04:11.561Z,1.80
2017-12-16T18:07:22.333Z,1.80
2017-12-16T18:10:32.948Z,1.80
2017-12-16T18:13:43.749Z,1.80
2017-12-16T18:16:53.970Z,1.80
2017-12-16T18:20:04.128Z,1.80
2017-12-16T18:23:14.733Z,1.80
2017-12-16T18:26:25.434Z,1.80
2017-12-16T18:29:35.704Z,1.80
2017-12-16T18:32:46.227Z,1.80
2017-12-16T18:35:56.947Z,1.80
2017-12-16T18:39:08.276Z,1.80
2017-12-16T18:42:18.821Z,1.80
2017-12-16T18:45:28.652Z,1.80
2017-12-16T18:48:38.450Z,1.70
2017-12-16T18:51:49.349Z,1.80
2017-12-16T18:54:59.614Z,1.70
2017-12-16T18:58:10.057Z,1.70
2017-12-16T19:01:20.427Z,1.70
2017-12-16T19:04:31.203Z,1.80
2017-12-16T19:07:41.726Z,1.80
2017-12-16T19:10:52.655Z,1.80
2017-12-16T19:14:02.777Z,1.70
2017-12-16T19:17:13.358Z,1.80
2017-12-16T19:20:23.491Z,1.80
2017-12-16T19:23:33.586Z,1.70
2017-12-16T19:26:44.098Z,1.70
2017-12-16T19:29:54.863Z,1.60
2017-12-16T19:33:05.062Z,1.60
2017-12-16T19:36:15.726Z,1.70
2017-12-16T19:39:26.139Z,1.60
2017-12-16T19:42:36.122Z,1.60
2017-12-16T19:45:46.309Z,1.60
2017-12-16T19:48:56.324Z,1.60
2017-12-16T19:52:07.164Z,1.60
2017-12-16T19:55:17.039Z,1.60
2017-12-16T19:58:27.442Z,1.60
2017-12-16T20:01:38.178Z,1.60
2017-12-16T20:04:48.425Z,1.60
2017-12-16T20:07:59.519Z,1.60
2017-12-16T20:11:09.497Z,1.60
2017-12-16T20:14:19.796Z,1.60
2017-12-16T20:17:29.935Z,1.50
2017-12-16T20:20:40.212Z,1.50
2017-12-16T20:23:50.408Z,1.50
2017-12-16T20:27:01.513Z,1.50
2017-12-16T20:30:11.882Z,1.50
2017-12-16T20:33:21.829Z,1.50
2017-12-16T20:36:32.427Z,1.50
2017-12-16T20:39:42.741Z,1.50
2017-12-16T20:42:53.528Z,1.50
2017-12-16T20:46:04.279Z,1.50
2017-12-16T20:49:15.498Z,1.50
2017-12-16T20:52:26.021Z,1.50
2017-12-16T20:55:35.928Z,1.50
2017-12-16T20:58:45.818Z,1.50
2017-12-16T21:01:56.106Z,1.50
2017-12-16T21:05:06.519Z,1.50
2017-12-16T21:08:16.881Z,1.50
2017-12-16T21:11:27.646Z,1.50
2017-12-16T21:14:37.862Z,1.50
2017-12-16T21:17:48.562Z,1.50
2017-12-16T21:21:00.124Z,1.60
2017-12-16T21:24:10.462Z,1.50
2017-12-16T21:27:20.630Z,1.50
2017-12-16T21:30:31.215Z,1.50
2017-12-16T21:33:41.299Z,1.60
2017-12-16T21:36:51.958Z,1.60
2017-12-16T21:40:02.830Z,1.50
2017-12-16T21:43:13.707Z,1.50
2017-12-16T21:46:23.915Z,1.50
2017-12-16T21:49:33.947Z,1.50
2017-12-16T21:52:43.880Z,1.60
2017-12-16T21:55:53.862Z,1.50
2017-12-16T21:59:04.566Z,1.60
2017-12-16T22:02:14.844Z,1.50
2017-12-16T22:05:26.463Z,1.60
2017-12-16T22:08:36.555Z,1.60
2017-12-16T22:11:47.911Z,1.60
2017-12-16T22:14:58.739Z,1.50
2017-12-16T22:18:08.775Z,1.50
2017-12-16T22:21:19.002Z,1.50
2017-12-16T22:24:30.037Z,1.50
2017-12-16T22:27:40.036Z,1.50
2017-12-16T22:30:51.403Z,1.50
2017-12-16T22:34:01.437Z,1.50
2017-12-16T22:37:11.666Z,1.50
2017-12-16T22:40:21.727Z,1.50
2017-12-16T22:43:32.687Z,1.50
2017-12-16T22:46:43.280Z,1.50
2017-12-16T22:49:53.550Z,1.50
2017-12-16T22:53:03.809Z,1.50
2017-12-16T22:56:14.522Z,1.30
2017-12-16T22:59:25.082Z,1.30
2017-12-16T23:02:35.446Z,1.30
2017-12-16T23:05:46.771Z,1.20
2017-12-16T23:08:56.624Z,1.20
2017-12-16T23:12:06.408Z,1.20
2017-12-16T23:15:15.888Z,1.20
2017-12-16T23:18:26.038Z,1.10
2017-12-16T23:21:36.395Z,1.10
2017-12-16T23:24:46.671Z,1.10
2017-12-16T23:27:57.078Z,1.10
2017-12-16T23:31:06.948Z,1.10
2017-12-16T23:34:16.488Z,1.20
2017-12-16T23:37:26.515Z,1.10
2017-12-16T23:40:37.238Z,1.20
2017-12-16T23:43:47.545Z,1.10
2017-12-16T23:46:57.616Z,1.00
2017-12-16T23:50:07.802Z,1.00
2017-12-16T23:53:18.024Z,1.00
2017-12-16T23:56:28.328Z,1.00
2017-12-16T23:59:38.395Z,1.00
